sensor_id;sensor_type;location;lat;lon;timestamp;P1;durP1;ratioP1;P2;durP2;ratioP2
53907;SDS011;40469;47.998;7.794;2022-11-15T00:01:35;4.63;;;2.00;;
53907;SDS011;40469;47.998;7.794;2022-11-15T00:04:02;4.70;;;1.75;;
53907;SDS011;40469;47.998;7.794;2022-11-15T00:06:28;3.53;;;1.83;;
53907;SDS011;40469;47.998;7.794;2022-11-15T00:08:54;3.13;;;1.67;;
53907;SDS011;40469;47.998;7.794;2022-11-15T00:11:19;4.80;;;1.98;;
53907;SDS011;40469;47.998;7.794;2022-11-15T00:13:44;2.40;;;1.80;;
53907;SDS011;40469;47.998;7.794;2022-11-15T00:16:09;3.33;;;1.70;;
53907;SDS011;40469;47.998;7.794;2022-11-15T00:18:35;4.15;;;1.77;;
53907;SDS011;40469;47.998;7.794;2022-11-15T00:21:03;3.20;;;1.70;;
53907;SDS011;40469;47.998;7.794;2022-11-15T00:23:30;3.15;;;1.35;;
53907;SDS011;40469;47.998;7.794;2022-11-15T00:25:56;2.85;;;1.63;;
53907;SDS011;40469;47.998;7.794;2022-11-15T00:28:23;5.18;;;1.70;;
53907;SDS011;40469;47.998;7.794;2022-11-15T00:30:49;3.78;;;1.65;;
53907;SDS011;40469;47.998;7.794;2022-11-15T00:33:14;2.83;;;1.45;;
53907;SDS011;40469;47.998;7.794;2022-11-15T00:35:39;6.15;;;1.90;;
53907;SDS011;40469;47.998;7.794;2022-11-15T00:38:05;3.33;;;1.63;;
53907;SDS011;40469;47.998;7.794;2022-11-15T00:40:30;6.50;;;1.95;;
53907;SDS011;40469;47.998;7.794;2022-11-15T00:42:56;3.90;;;1.65;;
53907;SDS011;40469;47.998;7.794;2022-11-15T00:45:22;3.00;;;1.50;;
53907;SDS011;40469;47.998;7.794;2022-11-15T00:47:47;3.28;;;1.70;;
53907;SDS011;40469;47.998;7.794;2022-11-15T00:50:13;4.85;;;1.67;;
53907;SDS011;40469;47.998;7.794;2022-11-15T00:52:38;3.75;;;1.50;;
53907;SDS011;40469;47.998;7.794;2022-11-15T00:55:04;2.95;;;1.60;;
53907;SDS011;40469;47.998;7.794;2022-11-15T00:57:29;2.72;;;1.52;;
53907;SDS011;40469;47.998;7.794;2022-11-15T00:59:55;2.78;;;1.58;;
53907;SDS011;40469;47.998;7.794;2022-11-15T01:02:20;2.50;;;1.58;;
53907;SDS011;40469;47.998;7.794;2022-11-15T01:04:45;2.42;;;1.38;;
53907;SDS011;40469;47.998;7.794;2022-11-15T01:07:11;3.08;;;1.63;;
53907;SDS011;40469;47.998;7.794;2022-11-15T01:09:36;3.70;;;1.63;;
53907;SDS011;40469;47.998;7.794;2022-11-15T01:12:01;5.15;;;1.83;;
53907;SDS011;40469;47.998;7.794;2022-11-15T01:14:27;2.67;;;1.50;;
53907;SDS011;40469;47.998;7.794;2022-11-15T01:16:52;3.35;;;1.65;;
53907;SDS011;40469;47.998;7.794;2022-11-15T01:19:18;2.38;;;1.48;;
53907;SDS011;40469;47.998;7.794;2022-11-15T01:21:43;3.88;;;1.40;;
53907;SDS011;40469;47.998;7.794;2022-11-15T01:24:10;3.28;;;1.55;;
53907;SDS011;40469;47.998;7.794;2022-11-15T01:26:37;3.58;;;1.70;;
53907;SDS011;40469;47.998;7.794;2022-11-15T01:29:02;2.17;;;1.48;;
53907;SDS011;40469;47.998;7.794;2022-11-15T01:31:27;5.55;;;1.90;;
53907;SDS011;40469;47.998;7.794;2022-11-15T01:33:53;3.00;;;2.03;;
53907;SDS011;40469;47.998;7.794;2022-11-15T01:36:19;4.95;;;1.55;;
53907;SDS011;40469;47.998;7.794;2022-11-15T01:38:58;5.72;;;2.20;;
53907;SDS011;40469;47.998;7.794;2022-11-15T01:41:28;4.22;;;1.85;;
53907;SDS011;40469;47.998;7.794;2022-11-15T01:43:57;6.78;;;2.67;;
53907;SDS011;40469;47.998;7.794;2022-11-15T01:46:42;2.95;;;1.70;;
53907;SDS011;40469;47.998;7.794;2022-11-15T01:49:13;2.33;;;1.40;;
53907;SDS011;40469;47.998;7.794;2022-11-15T01:51:41;2.13;;;1.42;;
53907;SDS011;40469;47.998;7.794;2022-11-15T01:54:08;2.83;;;1.10;;
53907;SDS011;40469;47.998;7.794;2022-11-15T01:56:58;2.78;;;1.40;;
53907;SDS011;40469;47.998;7.794;2022-11-15T01:59:26;2.22;;;1.30;;
53907;SDS011;40469;47.998;7.794;2022-11-15T02:01:52;3.42;;;1.40;;
53907;SDS011;40469;47.998;7.794;2022-11-15T02:04:28;8.50;;;2.10;;
53907;SDS011;40469;47.998;7.794;2022-11-15T02:06:56;5.60;;;1.73;;
53907;SDS011;40469;47.998;7.794;2022-11-15T02:09:22;3.80;;;2.05;;
53907;SDS011;40469;47.998;7.794;2022-11-15T02:11:47;2.90;;;1.70;;
53907;SDS011;40469;47.998;7.794;2022-11-15T02:14:14;4.57;;;2.08;;
53907;SDS011;40469;47.998;7.794;2022-11-15T02:25:03;6.07;;;2.10;;
53907;SDS011;40469;47.998;7.794;2022-11-15T02:33:35;3.25;;;1.77;;
53907;SDS011;40469;47.998;7.794;2022-11-15T02:38:38;4.55;;;1.77;;
53907;SDS011;40469;47.998;7.794;2022-11-15T02:41:13;3.72;;;1.85;;
53907;SDS011;40469;47.998;7.794;2022-11-15T02:43:48;3.35;;;1.58;;
53907;SDS011;40469;47.998;7.794;2022-11-15T02:46:28;4.93;;;1.70;;
53907;SDS011;40469;47.998;7.794;2022-11-15T02:49:13;2.88;;;1.63;;
53907;SDS011;40469;47.998;7.794;2022-11-15T02:51:40;4.05;;;1.60;;
53907;SDS011;40469;47.998;7.794;2022-11-15T02:54:06;5.90;;;1.65;;
53907;SDS011;40469;47.998;7.794;2022-11-15T02:56:35;3.95;;;2.05;;
53907;SDS011;40469;47.998;7.794;2022-11-15T03:01:38;4.50;;;2.60;;
53907;SDS011;40469;47.998;7.794;2022-11-15T03:04:37;2.42;;;1.60;;
53907;SDS011;40469;47.998;7.794;2022-11-15T03:07:19;3.40;;;1.65;;
53907;SDS011;40469;47.998;7.794;2022-11-15T03:10:06;2.67;;;1.80;;
53907;SDS011;40469;47.998;7.794;2022-11-15T03:13:07;3.55;;;1.80;;
53907;SDS011;40469;47.998;7.794;2022-11-15T03:18:28;3.78;;;1.58;;
53907;SDS011;40469;47.998;7.794;2022-11-15T03:20:58;3.50;;;1.50;;
53907;SDS011;40469;47.998;7.794;2022-11-15T03:23:26;3.03;;;1.80;;
53907;SDS011;40469;47.998;7.794;2022-11-15T03:25:55;3.25;;;1.50;;
53907;SDS011;40469;47.998;7.794;2022-11-15T03:28:32;3.75;;;1.50;;
53907;SDS011;40469;47.998;7.794;2022-11-15T03:31:01;5.05;;;1.70;;
53907;SDS011;40469;47.998;7.794;2022-11-15T03:33:50;4.13;;;1.88;;
53907;SDS011;40469;47.998;7.794;2022-11-15T03:36:18;4.25;;;1.83;;
53907;SDS011;40469;47.998;7.794;2022-11-15T03:38:46;3.13;;;1.75;;
53907;SDS011;40469;47.998;7.794;2022-11-15T03:41:31;3.75;;;1.80;;
53907;SDS011;40469;47.998;7.794;2022-11-15T03:44:23;4.85;;;2.15;;
53907;SDS011;40469;47.998;7.794;2022-11-15T03:47:16;3.47;;;1.92;;
53907;SDS011;40469;47.998;7.794;2022-11-15T03:49:52;4.40;;;1.80;;
53907;SDS011;40469;47.998;7.794;2022-11-15T03:52:23;3.47;;;2.00;;
53907;SDS011;40469;47.998;7.794;2022-11-15T03:54:49;4.70;;;2.17;;
53907;SDS011;40469;47.998;7.794;2022-11-15T03:57:17;4.63;;;1.80;;
53907;SDS011;40469;47.998;7.794;2022-11-15T03:59:42;4.07;;;2.28;;
53907;SDS011;40469;47.998;7.794;2022-11-15T04:02:08;3.08;;;1.88;;
53907;SDS011;40469;47.998;7.794;2022-11-15T04:04:33;3.72;;;1.77;;
53907;SDS011;40469;47.998;7.794;2022-11-15T04:06:58;2.65;;;1.77;;
53907;SDS011;40469;47.998;7.794;2022-11-15T04:09:24;4.32;;;2.17;;
53907;SDS011;40469;47.998;7.794;2022-11-15T04:11:49;3.40;;;2.05;;
53907;SDS011;40469;47.998;7.794;2022-11-15T04:14:14;4.10;;;2.30;;
53907;SDS011;40469;47.998;7.794;2022-11-15T04:16:39;4.13;;;2.30;;
53907;SDS011;40469;47.998;7.794;2022-11-15T04:19:05;3.80;;;2.55;;
53907;SDS011;40469;47.998;7.794;2022-11-15T04:21:49;3.22;;;2.28;;
53907;SDS011;40469;47.998;7.794;2022-11-15T04:24:32;3.95;;;2.30;;
53907;SDS011;40469;47.998;7.794;2022-11-15T04:26:58;6.00;;;2.47;;
53907;SDS011;40469;47.998;7.794;2022-11-15T04:29:23;4.30;;;2.47;;
53907;SDS011;40469;47.998;7.794;2022-11-15T04:32:05;4.30;;;2.40;;
53907;SDS011;40469;47.998;7.794;2022-11-15T04:34:31;3.30;;;1.88;;
53907;SDS011;40469;47.998;7.794;2022-11-15T04:36:57;3.53;;;2.50;;
53907;SDS011;40469;47.998;7.794;2022-11-15T04:39:39;6.07;;;3.50;;
53907;SDS011;40469;47.998;7.794;2022-11-15T04:42:05;4.63;;;2.47;;
53907;SDS011;40469;47.998;7.794;2022-11-15T04:44:30;6.30;;;2.30;;
53907;SDS011;40469;47.998;7.794;2022-11-15T04:46:56;5.07;;;2.25;;
53907;SDS011;40469;47.998;7.794;2022-11-15T04:49:21;5.40;;;2.80;;
53907;SDS011;40469;47.998;7.794;2022-11-15T04:51:46;7.10;;;2.30;;
53907;SDS011;40469;47.998;7.794;2022-11-15T04:54:12;5.47;;;2.42;;
53907;SDS011;40469;47.998;7.794;2022-11-15T04:56:37;6.03;;;2.58;;
53907;SDS011;40469;47.998;7.794;2022-11-15T04:59:02;4.53;;;2.47;;
53907;SDS011;40469;47.998;7.794;2022-11-15T05:01:28;4.78;;;2.28;;
53907;SDS011;40469;47.998;7.794;2022-11-15T05:03:53;5.63;;;2.00;;
53907;SDS011;40469;47.998;7.794;2022-11-15T05:06:36;3.15;;;2.05;;
53907;SDS011;40469;47.998;7.794;2022-11-15T05:09:02;6.00;;;2.35;;
53907;SDS011;40469;47.998;7.794;2022-11-15T05:11:28;5.82;;;2.20;;
53907;SDS011;40469;47.998;7.794;2022-11-15T05:13:53;8.75;;;2.08;;
53907;SDS011;40469;47.998;7.794;2022-11-15T05:16:18;5.80;;;1.85;;
53907;SDS011;40469;47.998;7.794;2022-11-15T05:18:44;5.05;;;2.03;;
53907;SDS011;40469;47.998;7.794;2022-11-15T05:21:10;6.00;;;2.08;;
53907;SDS011;40469;47.998;7.794;2022-11-15T05:23:37;4.53;;;2.33;;
53907;SDS011;40469;47.998;7.794;2022-11-15T05:26:04;3.63;;;2.17;;
53907;SDS011;40469;47.998;7.794;2022-11-15T05:28:31;4.75;;;2.38;;
53907;SDS011;40469;47.998;7.794;2022-11-15T05:33:29;4.97;;;2.42;;
53907;SDS011;40469;47.998;7.794;2022-11-15T05:35:56;3.47;;;2.20;;
53907;SDS011;40469;47.998;7.794;2022-11-15T05:38:25;6.40;;;2.35;;
53907;SDS011;40469;47.998;7.794;2022-11-15T05:40:50;3.53;;;2.25;;
53907;SDS011;40469;47.998;7.794;2022-11-15T05:43:16;4.47;;;2.55;;
53907;SDS011;40469;47.998;7.794;2022-11-15T05:45:42;3.50;;;2.22;;
53907;SDS011;40469;47.998;7.794;2022-11-15T05:48:07;3.08;;;2.10;;
53907;SDS011;40469;47.998;7.794;2022-11-15T05:50:35;4.75;;;2.83;;
53907;SDS011;40469;47.998;7.794;2022-11-15T05:53:03;11.75;;;2.22;;
53907;SDS011;40469;47.998;7.794;2022-11-15T05:55:30;4.63;;;2.50;;
53907;SDS011;40469;47.998;7.794;2022-11-15T05:57:56;3.53;;;2.10;;
53907;SDS011;40469;47.998;7.794;2022-11-15T06:00:22;3.90;;;2.20;;
53907;SDS011;40469;47.998;7.794;2022-11-15T06:02:47;3.83;;;2.20;;
53907;SDS011;40469;47.998;7.794;2022-11-15T06:05:12;4.22;;;2.17;;
53907;SDS011;40469;47.998;7.794;2022-11-15T06:07:38;4.82;;;2.50;;
53907;SDS011;40469;47.998;7.794;2022-11-15T06:10:03;4.60;;;2.58;;
53907;SDS011;40469;47.998;7.794;2022-11-15T06:12:29;7.15;;;2.85;;
53907;SDS011;40469;47.998;7.794;2022-11-15T06:14:54;5.32;;;2.78;;
53907;SDS011;40469;47.998;7.794;2022-11-15T06:17:20;5.50;;;2.40;;
53907;SDS011;40469;47.998;7.794;2022-11-15T06:19:45;5.43;;;2.60;;
53907;SDS011;40469;47.998;7.794;2022-11-15T06:22:11;3.92;;;2.28;;
53907;SDS011;40469;47.998;7.794;2022-11-15T06:24:36;5.20;;;2.60;;
53907;SDS011;40469;47.998;7.794;2022-11-15T06:27:01;4.10;;;2.13;;
53907;SDS011;40469;47.998;7.794;2022-11-15T06:29:27;5.10;;;2.60;;
53907;SDS011;40469;47.998;7.794;2022-11-15T06:31:52;8.88;;;2.72;;
53907;SDS011;40469;47.998;7.794;2022-11-15T06:34:18;10.52;;;2.45;;
53907;SDS011;40469;47.998;7.794;2022-11-15T06:36:43;4.18;;;2.53;;
53907;SDS011;40469;47.998;7.794;2022-11-15T06:39:08;3.10;;;2.10;;
53907;SDS011;40469;47.998;7.794;2022-11-15T06:41:34;3.67;;;2.10;;
53907;SDS011;40469;47.998;7.794;2022-11-15T06:44:00;6.88;;;2.63;;
53907;SDS011;40469;47.998;7.794;2022-11-15T06:46:26;6.28;;;2.67;;
53907;SDS011;40469;47.998;7.794;2022-11-15T06:48:52;8.75;;;2.90;;
53907;SDS011;40469;47.998;7.794;2022-11-15T06:51:18;7.45;;;2.85;;
53907;SDS011;40469;47.998;7.794;2022-11-15T06:53:44;5.68;;;2.78;;
53907;SDS011;40469;47.998;7.794;2022-11-15T06:56:09;5.28;;;2.47;;
53907;SDS011;40469;47.998;7.794;2022-11-15T06:58:35;4.60;;;2.55;;
53907;SDS011;40469;47.998;7.794;2022-11-15T07:01:04;4.32;;;2.53;;
53907;SDS011;40469;47.998;7.794;2022-11-15T07:03:33;4.20;;;2.22;;
53907;SDS011;40469;47.998;7.794;2022-11-15T07:05:59;4.20;;;2.47;;
53907;SDS011;40469;47.998;7.794;2022-11-15T07:08:26;6.07;;;2.63;;
53907;SDS011;40469;47.998;7.794;2022-11-15T07:10:53;4.53;;;2.40;;
53907;SDS011;40469;47.998;7.794;2022-11-15T07:13:19;4.90;;;2.50;;
53907;SDS011;40469;47.998;7.794;2022-11-15T07:15:44;5.93;;;2.97;;
53907;SDS011;40469;47.998;7.794;2022-11-15T07:18:09;8.40;;;3.63;;
53907;SDS011;40469;47.998;7.794;2022-11-15T07:20:35;5.20;;;2.63;;
53907;SDS011;40469;47.998;7.794;2022-11-15T07:23:01;6.13;;;3.65;;
53907;SDS011;40469;47.998;7.794;2022-11-15T07:25:27;6.90;;;3.75;;
53907;SDS011;40469;47.998;7.794;2022-11-15T07:27:56;10.85;;;3.30;;
53907;SDS011;40469;47.998;7.794;2022-11-15T07:30:23;7.30;;;3.78;;
53907;SDS011;40469;47.998;7.794;2022-11-15T07:32:54;4.70;;;2.70;;
53907;SDS011;40469;47.998;7.794;2022-11-15T07:35:23;8.32;;;3.38;;
53907;SDS011;40469;47.998;7.794;2022-11-15T07:37:53;6.13;;;3.17;;
53907;SDS011;40469;47.998;7.794;2022-11-15T07:40:20;6.72;;;3.20;;
53907;SDS011;40469;47.998;7.794;2022-11-15T07:42:45;7.13;;;3.30;;
53907;SDS011;40469;47.998;7.794;2022-11-15T07:50:11;5.60;;;2.80;;
53907;SDS011;40469;47.998;7.794;2022-11-15T07:52:37;5.32;;;3.45;;
53907;SDS011;40469;47.998;7.794;2022-11-15T07:55:02;4.45;;;2.40;;
53907;SDS011;40469;47.998;7.794;2022-11-15T07:57:28;4.95;;;2.40;;
53907;SDS011;40469;47.998;7.794;2022-11-15T07:59:54;5.75;;;2.40;;
53907;SDS011;40469;47.998;7.794;2022-11-15T08:02:20;5.05;;;2.55;;
53907;SDS011;40469;47.998;7.794;2022-11-15T08:04:45;4.93;;;3.30;;
53907;SDS011;40469;47.998;7.794;2022-11-15T08:07:10;5.95;;;2.50;;
53907;SDS011;40469;47.998;7.794;2022-11-15T08:09:36;4.85;;;2.50;;
53907;SDS011;40469;47.998;7.794;2022-11-15T08:12:01;4.00;;;2.40;;
53907;SDS011;40469;47.998;7.794;2022-11-15T08:14:26;3.92;;;2.40;;
53907;SDS011;40469;47.998;7.794;2022-11-15T08:16:51;7.07;;;2.70;;
53907;SDS011;40469;47.998;7.794;2022-11-15T08:19:17;5.10;;;2.50;;
53907;SDS011;40469;47.998;7.794;2022-11-15T08:21:42;4.68;;;2.95;;
53907;SDS011;40469;47.998;7.794;2022-11-15T08:24:09;5.32;;;2.28;;
53907;SDS011;40469;47.998;7.794;2022-11-15T08:26:35;7.15;;;2.80;;
53907;SDS011;40469;47.998;7.794;2022-11-15T08:29:00;9.77;;;3.50;;
53907;SDS011;40469;47.998;7.794;2022-11-15T08:31:26;6.65;;;3.40;;
53907;SDS011;40469;47.998;7.794;2022-11-15T08:33:51;5.97;;;2.95;;
53907;SDS011;40469;47.998;7.794;2022-11-15T08:36:17;5.72;;;2.78;;
53907;SDS011;40469;47.998;7.794;2022-11-15T08:38:42;5.68;;;2.72;;
53907;SDS011;40469;47.998;7.794;2022-11-15T08:41:12;5.07;;;2.55;;
53907;SDS011;40469;47.998;7.794;2022-11-15T08:43:40;4.25;;;1.90;;
53907;SDS011;40469;47.998;7.794;2022-11-15T08:46:05;3.42;;;2.30;;
53907;SDS011;40469;47.998;7.794;2022-11-15T08:48:30;3.97;;;1.73;;
53907;SDS011;40469;47.998;7.794;2022-11-15T08:50:56;3.50;;;1.90;;
53907;SDS011;40469;47.998;7.794;2022-11-15T08:53:22;3.50;;;1.88;;
53907;SDS011;40469;47.998;7.794;2022-11-15T08:55:48;4.53;;;2.10;;
53907;SDS011;40469;47.998;7.794;2022-11-15T08:58:13;4.43;;;2.25;;
53907;SDS011;40469;47.998;7.794;2022-11-15T09:00:38;4.22;;;2.35;;
53907;SDS011;40469;47.998;7.794;2022-11-15T09:03:04;4.85;;;2.70;;
53907;SDS011;40469;47.998;7.794;2022-11-15T09:05:30;4.72;;;2.40;;
53907;SDS011;40469;47.998;7.794;2022-11-15T09:07:56;5.32;;;2.15;;
53907;SDS011;40469;47.998;7.794;2022-11-15T09:10:21;3.60;;;2.15;;
53907;SDS011;40469;47.998;7.794;2022-11-15T09:12:47;4.13;;;2.63;;
53907;SDS011;40469;47.998;7.794;2022-11-15T09:15:13;3.55;;;2.10;;
53907;SDS011;40469;47.998;7.794;2022-11-15T09:17:40;7.93;;;3.40;;
53907;SDS011;40469;47.998;7.794;2022-11-15T09:20:06;6.13;;;2.65;;
53907;SDS011;40469;47.998;7.794;2022-11-15T09:22:32;5.15;;;2.33;;
53907;SDS011;40469;47.998;7.794;2022-11-15T09:24:57;3.88;;;2.33;;
53907;SDS011;40469;47.998;7.794;2022-11-15T09:27:22;3.63;;;2.00;;
53907;SDS011;40469;47.998;7.794;2022-11-15T09:29:52;3.10;;;1.95;;
53907;SDS011;40469;47.998;7.794;2022-11-15T09:32:17;5.30;;;2.67;;
53907;SDS011;40469;47.998;7.794;2022-11-15T09:34:42;3.72;;;2.50;;
53907;SDS011;40469;47.998;7.794;2022-11-15T09:37:07;4.88;;;2.40;;
53907;SDS011;40469;47.998;7.794;2022-11-15T09:39:33;6.90;;;2.80;;
53907;SDS011;40469;47.998;7.794;2022-11-15T09:50:12;5.65;;;2.42;;
53907;SDS011;40469;47.998;7.794;2022-11-15T09:52:45;8.05;;;2.80;;
53907;SDS011;40469;47.998;7.794;2022-11-15T09:55:11;8.38;;;2.67;;
53907;SDS011;40469;47.998;7.794;2022-11-15T10:00:40;3.83;;;2.10;;
53907;SDS011;40469;47.998;7.794;2022-11-15T10:05:44;5.85;;;2.80;;
53907;SDS011;40469;47.998;7.794;2022-11-15T10:11:03;5.77;;;2.80;;
53907;SDS011;40469;47.998;7.794;2022-11-15T10:13:33;6.78;;;3.15;;
53907;SDS011;40469;47.998;7.794;2022-11-15T10:16:07;6.65;;;3.22;;
53907;SDS011;40469;47.998;7.794;2022-11-15T10:21:17;4.85;;;3.10;;
53907;SDS011;40469;47.998;7.794;2022-11-15T10:23:45;5.13;;;2.80;;
53907;SDS011;40469;47.998;7.794;2022-11-15T10:26:13;4.88;;;2.70;;
53907;SDS011;40469;47.998;7.794;2022-11-15T10:28:40;4.15;;;2.75;;
53907;SDS011;40469;47.998;7.794;2022-11-15T10:31:20;6.72;;;2.85;;
53907;SDS011;40469;47.998;7.794;2022-11-15T10:33:50;10.45;;;4.18;;
53907;SDS011;40469;47.998;7.794;2022-11-15T10:36:17;9.30;;;3.60;;
53907;SDS011;40469;47.998;7.794;2022-11-15T10:41:13;4.57;;;2.97;;
53907;SDS011;40469;47.998;7.794;2022-11-15T10:43:39;7.03;;;3.03;;
53907;SDS011;40469;47.998;7.794;2022-11-15T10:46:25;6.13;;;2.78;;
53907;SDS011;40469;47.998;7.794;2022-11-15T10:48:50;4.57;;;2.83;;
53907;SDS011;40469;47.998;7.794;2022-11-15T10:51:26;6.40;;;2.50;;
53907;SDS011;40469;47.998;7.794;2022-11-15T10:53:54;6.68;;;2.50;;
53907;SDS011;40469;47.998;7.794;2022-11-15T10:56:22;6.18;;;2.42;;
53907;SDS011;40469;47.998;7.794;2022-11-15T10:58:51;6.32;;;2.88;;
53907;SDS011;40469;47.998;7.794;2022-11-15T11:01:21;7.57;;;3.30;;
53907;SDS011;40469;47.998;7.794;2022-11-15T11:06:25;7.00;;;3.67;;
53907;SDS011;40469;47.998;7.794;2022-11-15T11:14:12;8.80;;;3.17;;
53907;SDS011;40469;47.998;7.794;2022-11-15T11:16:44;9.00;;;3.92;;
53907;SDS011;40469;47.998;7.794;2022-11-15T11:19:17;7.25;;;4.00;;
53907;SDS011;40469;47.998;7.794;2022-11-15T11:30:05;6.40;;;2.78;;
53907;SDS011;40469;47.998;7.794;2022-11-15T11:43:08;6.50;;;2.60;;
53907;SDS011;40469;47.998;7.794;2022-11-15T11:45:47;6.95;;;2.80;;
53907;SDS011;40469;47.998;7.794;2022-11-15T11:48:38;6.65;;;3.58;;
53907;SDS011;40469;47.998;7.794;2022-11-15T11:51:40;7.15;;;2.60;;
53907;SDS011;40469;47.998;7.794;2022-11-15T11:56:39;5.95;;;3.35;;
53907;SDS011;40469;47.998;7.794;2022-11-15T12:02:20;11.50;;;3.85;;
53907;SDS011;40469;47.998;7.794;2022-11-15T12:04:53;7.10;;;3.40;;
53907;SDS011;40469;47.998;7.794;2022-11-15T12:07:31;6.80;;;3.28;;
53907;SDS011;40469;47.998;7.794;2022-11-15T12:09:59;6.38;;;3.30;;
53907;SDS011;40469;47.998;7.794;2022-11-15T12:17:29;5.97;;;3.30;;
53907;SDS011;40469;47.998;7.794;2022-11-15T12:19:59;5.97;;;3.13;;
53907;SDS011;40469;47.998;7.794;2022-11-15T12:22:33;7.25;;;3.40;;
53907;SDS011;40469;47.998;7.794;2022-11-15T12:30:20;8.40;;;3.47;;
53907;SDS011;40469;47.998;7.794;2022-11-15T12:32:51;7.07;;;4.07;;
53907;SDS011;40469;47.998;7.794;2022-11-15T12:35:26;7.15;;;3.70;;
53907;SDS011;40469;47.998;7.794;2022-11-15T12:38:02;8.82;;;4.35;;
53907;SDS011;40469;47.998;7.794;2022-11-15T12:40:29;7.03;;;4.13;;
53907;SDS011;40469;47.998;7.794;2022-11-15T12:48:20;10.15;;;3.95;;
53907;SDS011;40469;47.998;7.794;2022-11-15T12:53:36;5.33;;;3.13;;
53907;SDS011;40469;47.998;7.794;2022-11-15T12:59:38;8.57;;;3.63;;
53907;SDS011;40469;47.998;7.794;2022-11-15T13:07:04;6.13;;;3.30;;
53907;SDS011;40469;47.998;7.794;2022-11-15T13:12:10;6.65;;;3.63;;
53907;SDS011;40469;47.998;7.794;2022-11-15T13:14:46;7.05;;;3.70;;
53907;SDS011;40469;47.998;7.794;2022-11-15T13:19:45;8.70;;;4.10;;
53907;SDS011;40469;47.998;7.794;2022-11-15T13:22:12;8.05;;;3.53;;
53907;SDS011;40469;47.998;7.794;2022-11-15T13:25:00;6.85;;;3.47;;
53907;SDS011;40469;47.998;7.794;2022-11-15T13:27:27;5.68;;;3.35;;
53907;SDS011;40469;47.998;7.794;2022-11-15T13:29:53;5.70;;;3.65;;
53907;SDS011;40469;47.998;7.794;2022-11-15T13:32:19;7.72;;;4.43;;
53907;SDS011;40469;47.998;7.794;2022-11-15T13:34:45;7.88;;;3.50;;
53907;SDS011;40469;47.998;7.794;2022-11-15T13:37:31;6.07;;;3.28;;
53907;SDS011;40469;47.998;7.794;2022-11-15T13:40:09;6.60;;;3.63;;
53907;SDS011;40469;47.998;7.794;2022-11-15T13:42:45;7.75;;;3.83;;
53907;SDS011;40469;47.998;7.794;2022-11-15T13:45:13;6.00;;;3.70;;
53907;SDS011;40469;47.998;7.794;2022-11-15T13:47:41;9.30;;;4.95;;
53907;SDS011;40469;47.998;7.794;2022-11-15T13:50:09;6.72;;;3.40;;
53907;SDS011;40469;47.998;7.794;2022-11-15T13:52:36;6.43;;;3.65;;
53907;SDS011;40469;47.998;7.794;2022-11-15T13:55:13;7.28;;;3.40;;
53907;SDS011;40469;47.998;7.794;2022-11-15T13:58:16;7.38;;;3.35;;
53907;SDS011;40469;47.998;7.794;2022-11-15T14:00:44;6.00;;;3.38;;
53907;SDS011;40469;47.998;7.794;2022-11-15T14:05:39;5.90;;;2.50;;
53907;SDS011;40469;47.998;7.794;2022-11-15T14:08:13;6.35;;;2.90;;
53907;SDS011;40469;47.998;7.794;2022-11-15T14:10:48;5.18;;;2.75;;
53907;SDS011;40469;47.998;7.794;2022-11-15T14:13:27;4.78;;;2.90;;
53907;SDS011;40469;47.998;7.794;2022-11-15T14:15:54;5.90;;;2.85;;
53907;SDS011;40469;47.998;7.794;2022-11-15T14:18:39;4.72;;;2.83;;
53907;SDS011;40469;47.998;7.794;2022-11-15T14:21:07;8.35;;;3.22;;
53907;SDS011;40469;47.998;7.794;2022-11-15T14:23:33;6.32;;;3.35;;
53907;SDS011;40469;47.998;7.794;2022-11-15T14:25:59;8.52;;;3.35;;
53907;SDS011;40469;47.998;7.794;2022-11-15T14:30:51;7.45;;;3.25;;
53907;SDS011;40469;47.998;7.794;2022-11-15T14:33:25;5.28;;;2.88;;
53907;SDS011;40469;47.998;7.794;2022-11-15T14:35:53;5.97;;;3.92;;
53907;SDS011;40469;47.998;7.794;2022-11-15T14:38:19;4.47;;;2.78;;
53907;SDS011;40469;47.998;7.794;2022-11-15T14:40:44;4.10;;;2.58;;
53907;SDS011;40469;47.998;7.794;2022-11-15T14:43:10;7.57;;;3.05;;
53907;SDS011;40469;47.998;7.794;2022-11-15T14:45:36;6.07;;;3.40;;
53907;SDS011;40469;47.998;7.794;2022-11-15T14:48:02;5.97;;;3.30;;
53907;SDS011;40469;47.998;7.794;2022-11-15T14:50:28;6.78;;;3.10;;
53907;SDS011;40469;47.998;7.794;2022-11-15T14:52:53;7.78;;;4.18;;
53907;SDS011;40469;47.998;7.794;2022-11-15T14:55:23;5.13;;;2.88;;
53907;SDS011;40469;47.998;7.794;2022-11-15T14:57:51;5.43;;;3.25;;
53907;SDS011;40469;47.998;7.794;2022-11-15T15:00:19;4.72;;;3.08;;
53907;SDS011;40469;47.998;7.794;2022-11-15T15:02:45;9.73;;;4.28;;
53907;SDS011;40469;47.998;7.794;2022-11-15T15:07:48;7.35;;;3.67;;
53907;SDS011;40469;47.998;7.794;2022-11-15T15:10:15;5.47;;;3.10;;
53907;SDS011;40469;47.998;7.794;2022-11-15T15:12:41;7.82;;;4.32;;
53907;SDS011;40469;47.998;7.794;2022-11-15T15:15:13;6.05;;;4.00;;
53907;SDS011;40469;47.998;7.794;2022-11-15T15:17:40;8.68;;;4.82;;
53907;SDS011;40469;47.998;7.794;2022-11-15T15:20:06;8.45;;;4.40;;
53907;SDS011;40469;47.998;7.794;2022-11-15T15:22:32;7.88;;;4.55;;
53907;SDS011;40469;47.998;7.794;2022-11-15T15:24:58;8.73;;;3.47;;
53907;SDS011;40469;47.998;7.794;2022-11-15T15:27:23;6.50;;;4.25;;
53907;SDS011;40469;47.998;7.794;2022-11-15T15:29:48;6.53;;;3.50;;
53907;SDS011;40469;47.998;7.794;2022-11-15T15:32:14;7.20;;;4.13;;
53907;SDS011;40469;47.998;7.794;2022-11-15T15:34:42;7.35;;;3.58;;
53907;SDS011;40469;47.998;7.794;2022-11-15T15:39:52;7.78;;;3.10;;
53907;SDS011;40469;47.998;7.794;2022-11-15T15:42:19;7.78;;;3.65;;
53907;SDS011;40469;47.998;7.794;2022-11-15T15:44:46;8.07;;;3.75;;
53907;SDS011;40469;47.998;7.794;2022-11-15T15:47:13;6.75;;;3.60;;
53907;SDS011;40469;47.998;7.794;2022-11-15T15:49:41;6.80;;;3.60;;
53907;SDS011;40469;47.998;7.794;2022-11-15T15:52:07;8.82;;;3.72;;
53907;SDS011;40469;47.998;7.794;2022-11-15T15:54:33;12.82;;;4.18;;
53907;SDS011;40469;47.998;7.794;2022-11-15T15:56:58;8.50;;;4.70;;
53907;SDS011;40469;47.998;7.794;2022-11-15T15:59:24;11.05;;;5.00;;
53907;SDS011;40469;47.998;7.794;2022-11-15T16:01:49;10.68;;;5.68;;
53907;SDS011;40469;47.998;7.794;2022-11-15T16:04:14;9.93;;;4.65;;
53907;SDS011;40469;47.998;7.794;2022-11-15T16:06:40;9.50;;;4.38;;
53907;SDS011;40469;47.998;7.794;2022-11-15T16:09:16;9.85;;;5.25;;
53907;SDS011;40469;47.998;7.794;2022-11-15T16:11:46;9.30;;;4.68;;
53907;SDS011;40469;47.998;7.794;2022-11-15T16:14:11;8.57;;;4.50;;
53907;SDS011;40469;47.998;7.794;2022-11-15T16:16:37;9.80;;;4.25;;
53907;SDS011;40469;47.998;7.794;2022-11-15T16:19:03;9.30;;;4.10;;
53907;SDS011;40469;47.998;7.794;2022-11-15T16:21:29;5.57;;;3.65;;
53907;SDS011;40469;47.998;7.794;2022-11-15T16:23:54;8.70;;;4.25;;
53907;SDS011;40469;47.998;7.794;2022-11-15T16:28:52;10.68;;;4.13;;
53907;SDS011;40469;47.998;7.794;2022-11-15T16:31:18;9.30;;;3.85;;
53907;SDS011;40469;47.998;7.794;2022-11-15T16:33:46;9.35;;;3.67;;
53907;SDS011;40469;47.998;7.794;2022-11-15T16:36:19;10.13;;;4.15;;
53907;SDS011;40469;47.998;7.794;2022-11-15T16:38:47;7.57;;;3.60;;
53907;SDS011;40469;47.998;7.794;2022-11-15T16:41:13;9.90;;;3.95;;
53907;SDS011;40469;47.998;7.794;2022-11-15T16:43:40;9.57;;;4.05;;
53907;SDS011;40469;47.998;7.794;2022-11-15T16:46:12;7.18;;;3.42;;
53907;SDS011;40469;47.998;7.794;2022-11-15T16:51:05;8.30;;;4.53;;
53907;SDS011;40469;47.998;7.794;2022-11-15T16:53:31;9.77;;;4.50;;
53907;SDS011;40469;47.998;7.794;2022-11-15T16:55:56;8.32;;;4.07;;
53907;SDS011;40469;47.998;7.794;2022-11-15T16:58:22;8.80;;;4.57;;
53907;SDS011;40469;47.998;7.794;2022-11-15T17:00:51;11.32;;;3.80;;
53907;SDS011;40469;47.998;7.794;2022-11-15T17:03:17;7.75;;;4.15;;
53907;SDS011;40469;47.998;7.794;2022-11-15T17:05:43;6.13;;;3.60;;
53907;SDS011;40469;47.998;7.794;2022-11-15T17:08:09;7.85;;;3.75;;